Time;durP1;ratioP1;P1;durP2;ratioP2;P2;SDS_P1;SDS_P2;PMS_P1;PMS_P2;Temp;Humidity;BMP_temperature;BMP_pressure;BME280_temperature;BME280_humidity;BME280_pressure;Samples;Min_cycle;Max_cycle;Signal;HPM_P1;HPM_P2
2023/11/16 00:00:13;;;;;;;0.30;0.20;;;;;;;16.23;43.37;98542.72;4937865;28;20046;-79
2023/11/16 00:02:41;;;;;;;0.22;0.20;;;;;;;16.26;43.42;98543.22;4953402;29;20526;-80
2023/11/16 00:05:07;;;;;;;0.43;0.20;;;;;;;16.18;43.18;98519.50;4953462;28;20043;-80
2023/11/16 00:07:33;;;;;;;0.60;0.30;;;;;;;16.19;43.29;98523.78;4953146;29;20027;-80
2023/11/16 00:09:59;;;;;;;1.48;0.30;;;;;;;16.17;43.21;98517.00;4953000;29;20042;-80
2023/11/16 00:12:24;;;;;;;1.75;0.20;;;;;;;16.14;43.20;98528.66;4953064;28;20459;-80
2023/11/16 00:14:50;;;;;;;1.45;0.25;;;;;;;16.13;43.07;98539.38;4969021;28;20039;-80
2023/11/16 00:17:15;;;;;;;0.25;0.20;;;;;;;16.07;43.32;98549.53;4937521;28;20510;-80
2023/11/16 00:19:41;;;;;;;0.47;0.20;;;;;;;15.98;43.21;98558.38;4952789;29;20039;-81
2023/11/16 00:22:07;;;;;;;1.52;0.40;;;;;;;16.02;43.17;98569.41;4952895;29;20499;-80
2023/11/16 00:24:34;;;;;;;0.73;0.20;;;;;;;15.95;42.93;98547.34;4956295;28;20027;-80
2023/11/16 00:27:00;;;;;;;0.60;0.30;;;;;;;15.93;42.94;98538.78;4973085;28;20074;-79
2023/11/16 00:29:26;;;;;;;1.02;0.20;;;;;;;15.89;42.92;98532.97;4972633;28;20054;-79
2023/11/16 00:31:51;;;;;;;0.60;0.30;;;;;;;15.92;42.92;98548.47;4972796;28;20039;-80
2023/11/16 00:34:17;;;;;;;0.70;0.20;;;;;;;15.90;42.65;98559.16;4957667;29;20502;-80
2023/11/16 00:36:43;;;;;;;0.60;0.30;;;;;;;15.90;42.73;98561.78;4972586;28;20471;-80
2023/11/16 00:39:09;;;;;;;0.30;0.15;;;;;;;15.80;42.59;98555.81;4956988;29;20073;-79
2023/11/16 00:41:35;;;;;;;0.60;0.30;;;;;;;15.81;42.78;98543.47;4940902;28;20388;-80
2023/11/16 00:44:05;;;;;;;2.05;0.40;;;;;;;15.85;42.65;98556.16;4972714;28;20034;-79
2023/11/16 00:46:35;;;;;;;0.75;0.40;;;;;;;15.83;42.57;98563.41;4956908;28;20031;-80
2023/11/16 00:49:01;;;;;;;0.68;0.30;;;;;;;15.81;42.53;98567.16;4956102;29;20023;-80
2023/11/16 00:51:27;;;;;;;0.50;0.30;;;;;;;15.77;42.45;98557.94;4956309;29;20458;-81
2023/11/16 00:53:52;;;;;;;0.93;0.30;;;;;;;15.79;42.26;98555.97;4956789;28;20149;-83
2023/11/16 00:56:18;;;;;;;1.15;0.30;;;;;;;15.78;42.24;98552.53;4956437;29;20411;-81
2023/11/16 00:58:47;;;;;;;0.70;0.30;;;;;;;15.74;42.28;98549.31;4957348;29;20038;-82
2023/11/16 01:01:13;;;;;;;0.75;0.20;;;;;;;15.76;42.05;98558.88;4956118;29;20482;-82
2023/11/16 01:03:41;;;;;;;1.00;0.30;;;;;;;15.77;41.93;98566.66;4956297;29;20042;-83
2023/11/16 01:06:07;;;;;;;0.65;0.32;;;;;;;15.75;42.21;98550.16;4956171;29;20122;-81
2023/11/16 01:08:36;;;;;;;0.63;0.30;;;;;;;15.77;42.02;98534.25;4940101;29;20039;-81
2023/11/16 01:11:04;;;;;;;0.52;0.28;;;;;;;15.71;41.65;98530.41;4940441;29;20063;-82
2023/11/16 01:13:38;;;;;;;0.30;0.30;;;;;;;15.73;41.64;98518.75;4957220;29;20031;-82
2023/11/16 01:16:14;;;;;;;0.65;0.40;;;;;;;15.73;41.38;98528.41;4957125;29;20032;-82
2023/11/16 01:18:46;;;;;;;0.75;0.35;;;;;;;15.72;41.38;98539.94;4956364;29;20067;-81
2023/11/16 01:21:14;;;;;;;0.45;0.30;;;;;;;15.70;41.26;98550.63;4970851;28;20055;-81
2023/11/16 01:23:41;;;;;;;0.38;0.25;;;;;;;15.71;41.11;98551.44;4955806;29;20067;-81
2023/11/16 01:26:16;;;;;;;1.35;0.30;;;;;;;15.70;40.96;98555.03;4955851;29;20043;-82
2023/11/16 01:28:46;;;;;;;0.57;0.20;;;;;;;15.68;41.22;98546.50;4956308;29;20107;-79
2023/11/16 01:31:17;;;;;;;0.47;0.30;;;;;;;15.66;41.07;98551.91;4972051;28;20086;-79
2023/11/16 01:33:43;;;;;;;0.85;0.28;;;;;;;15.66;40.96;98543.19;4939691;29;20478;-79
2023/11/16 01:36:13;;;;;;;1.60;0.30;;;;;;;15.64;40.75;98551.25;4954899;28;20130;-79
2023/11/16 01:38:38;;;;;;;0.95;0.35;;;;;;;15.63;40.93;98549.56;4971381;28;20570;-78
2023/11/16 01:41:06;;;;;;;2.72;0.30;;;;;;;15.61;40.49;98567.34;4971367;28;20142;-79
2023/11/16 01:43:33;;;;;;;0.30;0.20;;;;;;;15.59;40.52;98553.47;4970920;28;20034;-79
2023/11/16 01:46:00;;;;;;;0.50;0.30;;;;;;;15.56;40.44;98556.44;4971359;28;20313;-80
2023/11/16 01:48:25;;;;;;;0.45;0.22;;;;;;;15.54;40.22;98556.59;4939306;29;20035;-80
2023/11/16 01:50:51;;;;;;;0.20;0.15;;;;;;;15.50;39.92;98563.13;4955397;29;20031;-80
2023/11/16 01:53:16;;;;;;;0.65;0.28;;;;;;;15.47;40.11;98560.81;4939793;28;20102;-79
2023/11/16 01:55:44;;;;;;;0.28;0.10;;;;;;;15.42;39.98;98549.09;4939050;29;20031;-80
2023/11/16 01:58:09;;;;;;;0.38;0.10;;;;;;;15.42;39.76;98565.72;4955261;29;20050;-80
2023/11/16 02:00:36;;;;;;;0.17;0.10;;;;;;;15.39;39.86;98576.53;4955513;29;20039;-80
2023/11/16 02:03:05;;;;;;;0.30;0.10;;;;;;;15.36;39.97;98575.03;4954868;29;20161;-80
2023/11/16 02:05:34;;;;;;;0.20;0.20;;;;;;;15.32;39.81;98573.69;4971040;28;20034;-80
2023/11/16 02:08:01;;;;;;;0.73;0.20;;;;;;;15.30;39.74;98575.63;4938996;29;20430;-80
2023/11/16 02:10:30;;;;;;;0.30;0.20;;;;;;;15.25;39.63;98572.63;4938971;29;20035;-80
2023/11/16 02:12:56;;;;;;;0.20;0.20;;;;;;;15.24;39.51;98578.84;4955024;29;20582;-80
2023/11/16 02:15:21;;;;;;;0.30;0.20;;;;;;;15.22;39.54;98577.38;4970759;28;20031;-80
2023/11/16 02:17:47;;;;;;;0.20;0.20;;;;;;;15.19;39.57;98581.94;4954853;28;20088;-81
2023/11/16 02:20:13;;;;;;;0.10;0.10;;;;;;;15.19;39.57;98584.56;4954384;28;20027;-80
2023/11/16 02:22:38;;;;;;;0.75;0.20;;;;;;;15.15;39.36;98593.75;4954329;29;20031;-81
2023/11/16 02:25:05;;;;;;;0.50;0.20;;;;;;;15.10;39.33;98593.38;4954612;29;20118;-81
2023/11/16 02:27:31;;;;;;;0.30;0.15;;;;;;;15.06;39.49;98591.19;4954627;28;20031;-80
2023/11/16 02:29:57;;;;;;;0.32;0.10;;;;;;;15.08;39.58;98597.13;4954694;29;20043;-81
2023/11/16 02:32:25;;;;;;;0.38;0.17;;;;;;;15.00;39.54;98597.84;4954598;29;20031;-81
2023/11/16 02:34:51;;;;;;;0.08;0.05;;;;;;;15.02;39.73;98609.03;4954313;29;20521;-82
2023/11/16 02:37:17;;;;;;;0.20;0.10;;;;;;;14.99;39.69;98610.19;4970389;28;20047;-81
2023/11/16 02:39:43;;;;;;;0.32;0.10;;;;;;;14.95;39.73;98615.88;4954211;29;20506;-81
2023/11/16 02:42:12;;;;;;;0.20;0.20;;;;;;;14.93;39.83;98609.97;4954217;29;20045;-81
2023/11/16 02:44:39;;;;;;;0.43;0.15;;;;;;;14.91;39.98;98618.00;4954420;29;20062;-81
2023/11/16 02:47:06;;;;;;;0.28;0.20;;;;;;;14.84;39.79;98616.91;4970097;28;20058;-82
2023/11/16 02:49:33;;;;;;;0.55;0.20;;;;;;;14.85;39.81;98618.56;4954188;29;20572;-81
2023/11/16 02:51:58;;;;;;;0.20;0.10;;;;;;;14.82;40.00;98624.94;4938657;28;20419;-81
2023/11/16 02:54:25;;;;;;;0.40;0.20;;;;;;;14.81;39.99;98617.19;4954068;29;20031;-81
2023/11/16 02:56:50;;;;;;;0.25;0.15;;;;;;;14.77;39.86;98614.03;4953895;28;20118;-81
2023/11/16 02:59:16;;;;;;;1.25;0.20;;;;;;;14.76;39.83;98617.63;4955103;29;20031;-80
2023/11/16 03:01:41;;;;;;;0.65;0.30;;;;;;;14.74;39.92;98621.41;4953854;29;20043;-80
2023/11/16 03:04:07;;;;;;;1.00;0.25;;;;;;;14.72;39.73;98618.06;4937984;29;20147;-80
2023/11/16 03:06:32;;;;;;;0.52;0.30;;;;;;;14.67;39.71;98615.06;4953817;29;20070;-80
2023/11/16 03:08:58;;;;;;;0.43;0.15;;;;;;;14.62;39.70;98610.25;4970192;28;20039;-79
2023/11/16 03:11:23;;;;;;;0.20;0.10;;;;;;;14.60;39.50;98636.66;4937818;29;20484;-80
2023/11/16 03:13:49;;;;;;;0.40;0.20;;;;;;;14.62;39.72;98639.16;4970197;28;20077;-80
2023/11/16 03:16:14;;;;;;;0.30;0.10;;;;;;;14.56;39.80;98631.81;4955178;29;20501;-80
2023/11/16 03:18:41;;;;;;;0.40;0.20;;;;;;;14.59;39.79;98628.91;4969795;28;20031;-80
2023/11/16 03:21:06;;;;;;;0.40;0.28;;;;;;;14.54;39.84;98633.75;4953459;29;20071;-80
2023/11/16 03:23:33;;;;;;;0.45;0.25;;;;;;;14.53;39.97;98640.81;4937322;29;20035;-80
2023/11/16 03:26:01;;;;;;;0.20;0.20;;;;;;;14.50;39.83;98649.00;4953714;29;20558;-81
2023/11/16 03:28:26;;;;;;;0.60;0.20;;;;;;;14.47;39.93;98650.09;4969424;28;20062;-81
2023/11/16 03:30:52;;;;;;;0.50;0.30;;;;;;;14.47;39.90;98646.66;4953466;29;20122;-81
2023/11/16 03:33:17;;;;;;;0.25;0.20;;;;;;;14.47;39.93;98657.16;4953737;29;20035;-80
2023/11/16 03:35:48;;;;;;;0.73;0.30;;;;;;;14.43;40.07;98663.66;4937173;29;20070;-80
2023/11/16 03:38:18;;;;;;;2.40;0.20;;;;;;;14.42;39.90;98659.38;4938168;29;20458;-80
2023/11/16 03:40:44;;;;;;;0.70;0.30;;;;;;;14.37;40.01;98657.16;4954370;29;20058;-80
2023/11/16 03:43:10;;;;;;;0.52;0.22;;;;;;;14.40;40.26;98666.56;4969431;28;20039;-80
2023/11/16 03:45:35;;;;;;;0.20;0.20;;;;;;;14.34;39.95;98667.97;4953643;29;20046;-79
2023/11/16 03:48:01;;;;;;;0.93;0.30;;;;;;;14.35;40.12;98679.31;4952991;29;20050;-80
2023/11/16 03:50:27;;;;;;;0.77;0.30;;;;;;;14.35;40.15;98690.63;4937143;29;20063;-79
2023/11/16 03:52:52;;;;;;;0.45;0.20;;;;;;;14.26;40.39;98687.06;4937706;29;20039;-80
2023/11/16 03:55:18;;;;;;;0.47;0.30;;;;;;;14.32;40.33;98697.97;4937006;29;20534;-80
2023/11/16 03:57:43;;;;;;;1.17;0.20;;;;;;;14.28;40.56;98700.88;4952694;29;20050;-80
2023/11/16 04:00:09;;;;;;;0.15;0.15;;;;;;;14.23;40.57;98708.34;4952991;29;20455;-80
2023/11/16 04:02:35;;;;;;;0.30;0.20;;;;;;;14.24;40.80;98712.63;4953083;28;20023;-80
2023/11/16 04:05:01;;;;;;;0.40;0.20;;;;;;;14.17;40.81;98703.66;4954161;28;20043;-80
2023/11/16 04:07:27;;;;;;;0.50;0.30;;;;;;;14.19;41.17;98716.66;4937200;29;20124;-80
2023/11/16 04:09:53;;;;;;;1.00;0.38;;;;;;;14.16;41.34;98711.69;4954483;29;20027;-79
2023/11/16 04:12:18;;;;;;;0.30;0.28;;;;;;;14.07;41.42;98695.81;4954570;29;20042;-79
2023/11/16 04:14:44;;;;;;;0.60;0.30;;;;;;;14.11;41.71;98698.97;4936626;29;20027;-76
2023/11/16 04:17:13;;;;;;;0.75;0.30;;;;;;;14.06;41.74;98691.53;4953903;29;20031;-76
2023/11/16 04:19:39;;;;;;;0.55;0.30;;;;;;;14.07;42.16;98700.22;4952938;29;20472;-77
2023/11/16 04:22:08;;;;;;;0.40;0.30;;;;;;;14.04;42.16;98700.50;4952841;29;20058;-77
2023/11/16 04:24:41;;;;;;;0.45;0.30;;;;;;;13.97;41.98;98684.47;4952790;29;20045;-77
2023/11/16 04:27:07;;;;;;;2.60;0.20;;;;;;;13.97;42.12;98694.16;4953094;28;20039;-78
2023/11/16 04:29:33;;;;;;;0.82;0.30;;;;;;;13.92;42.05;98695.41;4952571;29;20050;-80
2023/11/16 04:31:58;;;;;;;1.05;0.38;;;;;;;14.03;46.26;98714.59;4941336;28;20530;-78
2023/11/16 04:34:24;;;;;;;3.38;0.40;;;;;;;14.16;55.26;98711.69;4953107;29;20067;-78
2023/11/16 04:36:53;;;;;;;6.05;0.57;;;;;;;14.32;56.51;98730.28;4968954;28;20069;-77
2023/11/16 04:39:18;;;;;;;;;;;;;;;14.36;55.66;98738.72;4962502;28;20031;-77
2023/11/16 04:41:47;;;;;;;7.78;1.23;;;;;;;14.34;55.26;98738.84;4972065;28;20385;-80
2023/11/16 04:44:12;;;;;;;11.98;1.85;;;;;;;14.36;55.95;98728.22;4989184;28;20070;-85
2023/11/16 04:46:46;;;;;;;14.15;2.92;;;;;;;14.43;55.90;98745.06;4971797;28;20133;-73
2023/11/16 04:49:13;;;;;;;17.67;2.42;;;;;;;14.42;56.82;98730.28;4973476;28;20110;-74
2023/11/16 04:51:40;;;;;;;12.90;2.22;;;;;;;14.69;60.59;98739.22;4987999;28;20058;-78
2023/11/16 04:54:06;;;;;;;10.45;1.92;;;;;;;14.66;57.56;98742.97;4974244;28;20054;-81
2023/11/16 04:56:32;;;;;;;12.63;1.88;;;;;;;14.79;59.49;98735.59;4988549;28;20049;-78
2023/11/16 04:58:57;;;;;;;12.32;1.38;;;;;;;14.82;56.54;98737.13;4987659;28;20043;-77
2023/11/16 05:01:23;;;;;;;10.32;1.30;;;;;;;14.76;54.02;98750.81;4987903;28;20066;-77
2023/11/16 05:03:48;;;;;;;8.68;1.20;;;;;;;14.70;53.31;98748.78;4987608;28;20125;-77
2023/11/16 05:06:14;;;;;;;7.90;1.13;;;;;;;14.69;51.93;98744.47;4987838;28;20030;-78
2023/11/16 05:08:43;;;;;;;9.00;1.30;;;;;;;14.60;50.68;98744.38;4971757;28;20037;-79
2023/11/16 05:11:08;;;;;;;5.50;1.15;;;;;;;14.60;49.91;98752.25;4973233;28;20042;-79
2023/11/16 05:13:34;;;;;;;14.82;1.02;;;;;;;14.59;49.21;98766.31;4974657;28;20041;-79
2023/11/16 05:16:03;;;;;;;5.53;0.90;;;;;;;14.57;48.14;98773.50;4958862;28;20039;-78
2023/11/16 05:18:28;;;;;;;8.32;0.82;;;;;;;14.53;47.99;98771.31;4991033;28;20516;-78
2023/11/16 05:20:54;;;;;;;3.88;0.90;;;;;;;14.53;47.32;98777.41;4990769;28;20054;-79
2023/11/16 05:23:20;;;;;;;4.63;0.70;;;;;;;14.57;46.85;98789.28;4975054;28;20031;-85
2023/11/16 05:25:45;;;;;;;4.75;0.70;;;;;;;14.65;46.13;98794.69;4976774;28;20026;-84
2023/11/16 05:28:11;;;;;;;4.45;0.80;;;;;;;14.69;45.72;98789.13;4975399;28;20046;-83
2023/11/16 05:30:37;;;;;;;3.63;0.90;;;;;;;14.83;45.17;98804.44;4992042;28;20026;-85
2023/11/16 05:33:03;;;;;;;3.42;0.52;;;;;;;15.02;44.63;98804.41;4991374;28;20381;-84
2023/11/16 05:35:29;;;;;;;3.38;0.70;;;;;;;15.25;43.84;98790.06;4975737;28;20031;-84
2023/11/16 05:37:55;;;;;;;3.42;0.50;;;;;;;15.53;43.13;98799.59;4991894;28;20557;-86
2023/11/16 05:40:21;;;;;;;3.45;0.80;;;;;;;15.96;42.27;98807.81;4993321;28;20031;-87
2023/11/16 05:42:46;;;;;;;2.25;0.60;;;;;;;16.44;40.97;98813.66;4994809;28;20069;-88
2023/11/16 05:45:12;;;;;;;3.60;1.17;;;;;;;17.01;39.98;98829.06;4978130;28;20082;-89
2023/11/16 05:47:38;;;;;;;2.60;0.50;;;;;;;17.52;39.06;98808.88;4994594;28;20069;-86
2023/11/16 05:50:05;;;;;;;2.22;0.57;;;;;;;18.13;37.78;98810.50;4960561;28;20059;-87
2023/11/16 05:52:31;;;;;;;1.60;0.60;;;;;;;18.73;36.22;98814.63;4976292;28;20038;-86
2023/11/16 05:54:56;;;;;;;1.70;0.80;;;;;;;19.29;35.06;98815.50;4975742;28;20046;-88
2023/11/16 05:57:22;;;;;;;3.13;1.00;;;;;;;19.97;33.62;98822.97;4978172;28;20041;-87
2023/11/16 05:59:47;;;;;;;3.80;0.82;;;;;;;20.72;32.43;98832.84;4977970;28;20042;-88
2023/11/16 06:02:14;;;;;;;2.58;0.80;;;;;;;21.53;31.24;98834.00;4976683;28;20035;-87
2023/11/16 06:04:42;;;;;;;1.77;0.57;;;;;;;22.34;29.65;98841.84;4977245;28;20043;-87
2023/11/16 06:07:07;;;;;;;1.03;0.40;;;;;;;23.22;28.43;98845.00;4975661;28;20066;-86
2023/11/16 06:09:33;;;;;;;1.63;0.55;;;;;;;24.11;27.19;98853.16;4990841;28;20341;-83
2023/11/16 06:12:01;;;;;;;2.35;0.50;;;;;;;24.95;25.73;98841.09;4974896;28;20491;-82
2023/11/16 06:14:31;;;;;;;3.28;0.50;;;;;;;25.72;24.80;98862.69;4976744;28;20109;-88
2023/11/16 06:17:00;;;;;;;2.15;0.50;;;;;;;26.54;23.35;98862.84;4976188;28;20033;-86
2023/11/16 06:19:29;;;;;;;3.30;0.60;;;;;;;27.20;22.69;98862.47;4983724;28;20109;-85
2023/11/16 06:21:54;;;;;;;1.55;0.60;;;;;;;27.82;22.22;98875.00;4993175;28;20110;-86
2023/11/16 06:24:20;;;;;;;1.20;0.50;;;;;;;28.51;21.25;98864.75;4994014;28;20065;-85
2023/11/16 06:26:46;;;;;;;1.92;0.47;;;;;;;28.77;20.84;98873.47;4969044;28;20562;-86
2023/11/16 06:29:14;;;;;;;1.90;0.38;;;;;;;29.47;19.80;98863.75;4978920;28;20487;-86
2023/11/16 06:31:41;;;;;;;0.73;0.40;;;;;;;30.33;18.95;98884.50;4962122;28;20121;-83
2023/11/16 06:34:08;;;;;;;2.05;0.40;;;;;;;31.17;18.57;98892.63;4974889;28;20141;-84
2023/11/16 06:36:34;;;;;;;0.77;0.33;;;;;;;32.04;17.35;98901.00;4980378;28;20038;-88
2023/11/16 06:39:01;;;;;;;0.90;0.30;;;;;;;32.91;16.49;98905.59;4982760;28;20505;-88
2023/11/16 06:41:26;;;;;;;0.83;0.40;;;;;;;33.65;15.97;98925.50;4984276;28;20049;-88
2023/11/16 06:43:53;;;;;;;0.95;0.32;;;;;;;34.13;15.09;98922.69;4999143;28;20026;-85
2023/11/16 06:46:19;;;;;;;0.38;0.20;;;;;;;34.63;14.46;98925.78;4978338;28;20039;-87
2023/11/16 06:48:44;;;;;;;1.73;0.45;;;;;;;34.90;14.42;98928.25;4977711;28;20034;-86
2023/11/16 06:51:10;;;;;;;0.65;0.20;;;;;;;34.68;14.73;98923.91;4993783;28;20104;-87
2023/11/16 06:53:35;;;;;;;0.50;0.25;;;;;;;34.44;15.16;98923.59;4977287;28;20593;-85
2023/11/16 06:56:04;;;;;;;3.40;0.43;;;;;;;34.00;15.52;98918.63;4979675;28;20031;-88
2023/11/16 06:58:29;;;;;;;2.13;0.57;;;;;;;33.56;15.49;98924.38;4960715;28;20406;-85
2023/11/16 07:00:56;;;;;;;1.27;0.40;;;;;;;33.12;16.06;98922.78;4966335;28;20046;-91
2023/11/16 07:03:25;;;;;;;2.53;0.43;;;;;;;32.80;16.27;98926.34;4986967;28;20406;-87
2023/11/16 07:05:52;;;;;;;1.83;0.30;;;;;;;32.57;16.36;98924.75;4976507;28;20085;-86
2023/11/16 07:08:19;;;;;;;0.85;0.28;;;;;;;32.37;16.82;98912.72;4990512;28;20109;-85
2023/11/16 07:10:45;;;;;;;0.95;0.28;;;;;;;32.23;16.87;98914.16;4975200;28;20457;-85
2023/11/16 07:13:14;;;;;;;3.20;0.50;;;;;;;32.16;16.98;98919.78;4974217;28;20042;-85
2023/11/16 07:15:44;;;;;;;0.28;0.17;;;;;;;32.00;17.11;98926.06;4973793;28;20478;-85
2023/11/16 07:18:09;;;;;;;1.02;0.30;;;;;;;31.87;17.20;98933.47;4973418;28;20234;-84
2023/11/16 07:20:37;;;;;;;0.77;0.20;;;;;;;31.80;17.10;98930.16;4980927;28;20051;-86
2023/11/16 07:23:03;;;;;;;0.68;0.20;;;;;;;31.76;17.11;98931.72;4958827;28;20038;-88
2023/11/16 07:25:29;;;;;;;0.55;0.28;;;;;;;31.79;17.14;98938.50;4976744;28;20512;-86
2023/11/16 07:27:54;;;;;;;1.75;0.35;;;;;;;31.79;16.80;98927.72;4958424;28;20035;-86
2023/11/16 07:30:20;;;;;;;0.28;0.20;;;;;;;31.80;17.51;98935.56;4973895;28;20035;-84
2023/11/16 07:32:48;;;;;;;1.92;0.20;;;;;;;31.83;17.10;98937.72;4957117;28;20494;-83
2023/11/16 07:35:17;;;;;;;1.27;0.30;;;;;;;31.96;16.77;98943.81;4957997;28;20031;-86
2023/11/16 07:37:46;;;;;;;1.25;0.25;;;;;;;32.06;16.48;98957.44;4991849;28;20039;-86
2023/11/16 07:40:16;;;;;;;2.00;0.20;;;;;;;32.12;16.93;98947.53;4978809;28;20050;-85
2023/11/16 07:42:44;;;;;;;1.15;0.30;;;;;;;32.16;16.83;98952.19;4979515;28;20062;-89
2023/11/16 07:45:09;;;;;;;0.73;0.20;;;;;;;32.26;16.60;98956.88;4978190;28;20033;-86
2023/11/16 07:47:37;;;;;;;0.80;0.22;;;;;;;32.36;16.75;98965.09;4967507;28;20027;-90
2023/11/16 07:50:05;;;;;;;;;;;;;;;32.47;16.42;98979.53;4983424;28;20034;-88
2023/11/16 07:52:31;;;;;;;0.82;0.40;;;;;;;32.58;16.31;98961.53;4963182;28;20004;-88
2023/11/16 07:54:56;;;;;;;1.02;0.30;;;;;;;32.69;16.55;98965.13;4981480;28;20117;-86
2023/11/16 07:57:25;;;;;;;1.23;0.30;;;;;;;32.73;16.33;98967.06;4961032;28;20062;-88
2023/11/16 07:59:54;;;;;;;0.52;0.25;;;;;;;32.78;16.06;98966.31;4993737;28;20387;-89
2023/11/16 08:02:28;;;;;;;0.95;0.30;;;;;;;32.77;15.98;98948.47;4962623;28;20422;-86
2023/11/16 08:04:53;;;;;;;0.77;0.30;;;;;;;32.80;16.07;98972.28;4980585;28;20043;-90
2023/11/16 08:07:23;;;;;;;1.90;0.20;;;;;;;32.83;16.36;98960.97;4965269;28;20030;-88
2023/11/16 08:09:50;;;;;;;1.00;0.20;;;;;;;32.87;16.12;98962.06;4978510;28;20030;-88
2023/11/16 08:12:15;;;;;;;1.45;0.17;;;;;;;32.93;15.74;98952.91;4978168;28;20092;-87
2023/11/16 08:14:41;;;;;;;1.05;0.20;;;;;;;33.02;16.06;98960.53;4978198;28;20034;-89
2023/11/16 08:17:09;;;;;;;1.33;0.20;;;;;;;33.04;15.47;98980.84;4976531;28;20086;-88
2023/11/16 08:19:35;;;;;;;3.38;0.20;;;;;;;33.12;15.65;98995.78;4976947;28;20034;-88
2023/11/16 08:22:01;;;;;;;0.43;0.20;;;;;;;33.22;15.55;98986.97;4977731;28;20074;-89
2023/11/16 08:24:27;;;;;;;1.60;0.30;;;;;;;33.32;15.21;98995.97;4992977;28;20487;-87
2023/11/16 08:26:56;;;;;;;1.20;0.30;;;;;;;33.42;15.35;98997.91;4977032;28;20043;-89
2023/11/16 08:29:22;;;;;;;0.85;0.22;;;;;;;33.55;15.67;98996.63;4978202;28;20033;-85
2023/11/16 08:31:52;;;;;;;0.70;0.20;;;;;;;33.67;14.77;98986.44;4977969;28;20502;-87
2023/11/16 08:34:24;;;;;;;0.52;0.20;;;;;;;33.79;15.09;98996.25;4977533;28;20056;-89
2023/11/16 08:36:51;;;;;;;0.82;0.30;;;;;;;33.86;15.30;98988.72;4980929;28;20027;-87
2023/11/16 08:39:17;;;;;;;1.15;0.10;;;;;;;34.03;15.29;98993.91;4984181;28;20042;-88
2023/11/16 08:41:43;;;;;;;0.38;0.10;;;;;;;34.21;14.89;98990.72;4978262;28;20470;-85
2023/11/16 08:44:09;;;;;;;1.55;0.30;;;;;;;34.43;14.72;98995.16;4977338;28;20113;-85
2023/11/16 08:46:41;;;;;;;0.68;0.20;;;;;;;34.65;14.66;98980.53;4980058;28;20031;-87
2023/11/16 08:49:07;;;;;;;0.80;0.25;;;;;;;35.07;14.36;98999.28;4979164;28;20023;-85
2023/11/16 08:51:33;;;;;;;0.57;0.28;;;;;;;35.68;13.99;99005.75;4961092;28;20049;-85
2023/11/16 08:53:59;;;;;;;0.90;0.20;;;;;;;36.50;13.22;99010.84;4993229;28;20033;-86
2023/11/16 08:56:24;;;;;;;0.68;0.30;;;;;;;37.36;12.47;98994.13;4977851;28;20027;-85
2023/11/16 08:58:52;;;;;;;0.45;0.20;;;;;;;38.21;11.84;99004.63;4993441;28;20054;-84
2023/11/16 09:01:18;;;;;;;0.40;0.20;;;;;;;39.13;11.22;98988.81;4977879;28;20066;-86
2023/11/16 09:03:49;;;;;;;0.50;0.30;;;;;;;39.93;10.70;98998.47;4976906;28;20439;-86
2023/11/16 09:06:21;;;;;;;7.43;0.50;;;;;;;40.75;10.34;99006.00;4977511;28;20097;-88
2023/11/16 09:08:48;;;;;;;0.75;0.40;;;;;;;40.92;9.85;99008.06;4977602;28;20062;-87
2023/11/16 09:11:17;;;;;;;0.68;0.30;;;;;;;40.23;9.97;98995.41;4961200;28;20031;-88
2023/11/16 09:13:44;;;;;;;1.55;0.32;;;;;;;39.30;10.97;99002.69;4977114;28;20038;-86
2023/11/16 09:16:10;;;;;;;0.73;0.40;;;;;;;38.50;11.27;99001.78;4993796;28;20027;-87
2023/11/16 09:18:38;;;;;;;1.75;0.30;;;;;;;37.66;12.25;99003.88;4977819;28;20065;-87
2023/11/16 09:21:06;;;;;;;2.78;0.40;;;;;;;37.20;12.32;98984.50;4962404;28;20145;-89
2023/11/16 09:23:31;;;;;;;2.85;0.30;;;;;;;36.83;12.60;98996.78;4994170;28;20426;-86
2023/11/16 09:25:57;;;;;;;0.20;0.20;;;;;;;35.31;13.64;98986.00;4978218;28;20044;-87
2023/11/16 09:28:22;;;;;;;1.67;0.35;;;;;;;37.24;12.18;98988.28;4978125;28;20121;-87
2023/11/16 09:30:48;;;;;;;0.73;0.30;;;;;;;38.88;11.20;98994.38;4977692;28;20035;-88
2023/11/16 09:33:13;;;;;;;1.45;0.35;;;;;;;39.92;10.49;98991.38;4998619;28;20035;-90
2023/11/16 09:35:42;;;;;;;1.70;0.57;;;;;;;40.51;9.83;98986.03;4979433;28;20022;-87
2023/11/16 09:38:11;;;;;;;1.27;0.50;;;;;;;40.63;9.84;98981.94;4981195;28;20486;-87
2023/11/16 09:40:37;;;;;;;1.00;0.47;;;;;;;40.55;9.89;98977.19;4981904;28;20027;-90
2023/11/16 09:43:16;;;;;;;1.70;0.60;;;;;;;40.08;10.43;98977.44;4982211;28;20442;-89
2023/11/16 09:45:48;;;;;;;0.65;0.30;;;;;;;39.46;10.85;98989.56;4984435;28;20030;-87
2023/11/16 09:48:15;;;;;;;1.25;0.30;;;;;;;38.85;11.12;98981.31;4988995;28;20066;-89
2023/11/16 09:50:48;;;;;;;0.95;0.40;;;;;;;38.27;11.65;98987.94;4985357;28;20065;-91
2023/11/16 09:53:23;;;;;;;0.70;0.40;;;;;;;37.87;11.73;98984.59;4985474;28;20027;-90
2023/11/16 09:56:04;;;;;;;0.95;0.40;;;;;;;37.56;12.35;98982.22;4979632;28;20081;-88
2023/11/16 09:58:36;;;;;;;0.93;0.40;;;;;;;37.29;12.53;98978.16;4965135;28;20037;-90
2023/11/16 10:01:05;;;;;;;1.70;0.30;;;;;;;37.07;12.33;98978.63;4974288;28;20212;-89
2023/11/16 10:03:32;;;;;;;0.40;0.22;;;;;;;36.83;12.72;98977.72;4961411;28;20053;-87
2023/11/16 10:05:58;;;;;;;0.57;0.10;;;;;;;36.52;12.93;98973.31;4961208;28;20398;-88
2023/11/16 10:08:27;;;;;;;1.10;0.30;;;;;;;36.34;12.99;98965.81;4978391;28;20470;-89
2023/11/16 10:11:04;;;;;;;0.43;0.30;;;;;;;36.03;13.05;98958.63;4979975;28;20039;-88
2023/11/16 10:13:30;;;;;;;0.40;0.20;;;;;;;35.72;13.26;98963.34;4996589;28;20030;-90
2023/11/16 10:16:00;;;;;;;1.90;0.28;;;;;;;35.45;13.70;98971.84;4980533;28;20030;-87
2023/11/16 10:18:25;;;;;;;3.08;0.50;;;;;;;35.13;14.07;98965.66;4984979;28;20034;-89
2023/11/16 10:20:51;;;;;;;0.30;0.22;;;;;;;34.83;14.34;98960.25;4967270;28;20046;-89
2023/11/16 10:23:23;;;;;;;2.25;0.30;;;;;;;34.55;14.20;98962.38;4970773;28;20046;-90
2023/11/16 10:25:48;;;;;;;0.45;0.20;;;;;;;34.22;14.69;98950.91;4981512;28;20031;-88
2023/11/16 10:28:15;;;;;;;0.25;0.10;;;;;;;33.98;14.87;98953.28;4979838;28;20054;-88
2023/11/16 10:30:45;;;;;;;0.90;0.30;;;;;;;33.72;14.88;98950.47;4979025;28;20057;-87
2023/11/16 10:33:10;;;;;;;2.92;0.20;;;;;;;33.50;15.07;98948.72;4979371;28;20035;-88
2023/11/16 10:35:41;;;;;;;0.40;0.20;;;;;;;33.34;15.21;98945.13;4979837;28;20074;-87
2023/11/16 10:38:07;;;;;;;0.93;0.17;;;;;;;33.18;15.48;98954.22;4968172;28;20026;-89
2023/11/16 10:40:33;;;;;;;0.60;0.13;;;;;;;33.00;15.30;98947.28;4983238;28;20478;-87
2023/11/16 10:43:01;;;;;;;0.22;0.15;;;;;;;32.73;15.17;98937.34;4982465;28;20517;-89
2023/11/16 10:45:26;;;;;;;0.32;0.13;;;;;;;32.58;15.75;98939.91;4981991;28;20106;-86
2023/11/16 10:47:53;;;;;;;0.40;0.15;;;;;;;32.34;15.78;98940.22;4966997;28;20065;-88
2023/11/16 10:50:18;;;;;;;0.25;0.10;;;;;;;32.15;15.79;98937.06;4985041;28;20030;-89
2023/11/16 10:52:45;;;;;;;0.73;0.25;;;;;;;31.92;16.09;98935.41;4983103;28;20038;-88
2023/11/16 10:55:22;;;;;;;2.42;0.20;;;;;;;31.74;16.15;98933.88;4979719;28;20030;-89
2023/11/16 10:58:00;;;;;;;0.82;0.30;;;;;;;31.50;16.25;98931.38;4982626;28;20034;-86
2023/11/16 11:00:29;;;;;;;1.40;0.30;;;;;;;31.31;16.54;98925.44;4966104;28;20042;-89
2023/11/16 11:03:03;;;;;;;0.47;0.30;;;;;;;31.13;16.93;98937.31;4981970;28;20550;-88
2023/11/16 11:05:32;;;;;;;1.88;0.40;;;;;;;30.93;16.59;98928.88;4980630;28;20125;-87
2023/11/16 11:07:58;;;;;;;1.00;0.30;;;;;;;30.73;17.06;98932.91;4980824;28;20042;-87
2023/11/16 11:10:26;;;;;;;0.98;0.50;;;;;;;30.51;16.99;98927.41;4966373;28;20123;-89
2023/11/16 11:12:54;;;;;;;0.77;0.30;;;;;;;30.37;17.14;98929.56;4984133;28;20031;-88
2023/11/16 11:15:36;;;;;;;0.73;0.30;;;;;;;30.17;17.64;98937.25;4981413;28;20554;-87
2023/11/16 11:18:05;;;;;;;0.40;0.30;;;;;;;29.95;17.52;98927.97;4981530;28;20061;-88
2023/11/16 11:20:41;;;;;;;3.15;0.32;;;;;;;29.83;17.71;98931.75;4979884;28;20054;-90
2023/11/16 11:23:13;;;;;;;1.73;0.30;;;;;;;29.65;17.69;98932.69;4980109;28;20030;-88
2023/11/16 11:25:39;;;;;;;0.68;0.30;;;;;;;29.45;17.76;98925.84;4976941;28;20478;-88
2023/11/16 11:28:15;;;;;;;0.68;0.30;;;;;;;29.29;17.93;98934.59;4976569;28;20034;-86
2023/11/16 11:30:55;;;;;;;2.08;0.50;;;;;;;29.12;18.05;98929.09;4977442;28;20102;-88
2023/11/16 11:33:39;;;;;;;0.80;0.32;;;;;;;28.90;18.49;98943.09;4981171;28;20026;-88